createdAt,value
2018-08-14T00:00:43.535Z,17.73
2018-08-14T00:03:13.401Z,17.73
2018-08-14T00:05:42.071Z,17.76
2018-08-14T00:08:10.417Z,17.77
2018-08-14T00:10:38.825Z,17.77
2018-08-14T00:13:09.481Z,17.78
2018-08-14T00:15:38.161Z,17.78
2018-08-14T00:18:06.959Z,17.79
2018-08-14T00:20:35.341Z,17.82
2018-08-14T00:23:03.756Z,17.83
2018-08-14T00:25:32.217Z,17.86
2018-08-14T00:28:00.606Z,17.87
2018-08-14T00:30:29.985Z,17.88
2018-08-14T00:32:59.502Z,17.88
2018-08-14T00:35:27.855Z,17.87
2018-08-14T00:37:56.431Z,17.88
2018-08-14T00:40:25.230Z,17.89
2018-08-14T00:42:56.316Z,17.90
2018-08-14T00:45:25.011Z,17.90
2018-08-14T00:47:53.359Z,17.91
2018-08-14T00:50:21.752Z,17.93
2018-08-14T00:52:50.179Z,17.92
2018-08-14T00:55:19.488Z,17.93
2018-08-14T00:57:48.597Z,17.93
2018-08-14T01:00:25.623Z,17.94
2018-08-14T01:02:54.377Z,17.93
2018-08-14T01:05:22.690Z,17.94
2018-08-14T01:07:51.143Z,17.95
2018-08-14T01:10:19.588Z,17.95
2018-08-14T01:12:50.870Z,17.93
2018-08-14T01:15:22.488Z,17.90
2018-08-14T01:17:53.139Z,17.85
2018-08-14T01:20:22.797Z,17.80
2018-08-14T01:22:51.292Z,17.77
2018-08-14T01:25:19.859Z,17.75
2018-08-14T01:27:49.251Z,17.77
2018-08-14T01:30:21.658Z,17.79
2018-08-14T01:32:50.200Z,17.79
2018-08-14T01:35:18.871Z,17.79
2018-08-14T01:37:47.338Z,17.76
2018-08-14T01:40:15.759Z,17.77
2018-08-14T01:42:44.187Z,17.76
2018-08-14T01:45:13.906Z,17.80
2018-08-14T01:47:42.566Z,17.80
2018-08-14T01:50:14.347Z,17.83
2018-08-14T01:52:42.721Z,17.87
2018-08-14T01:55:11.104Z,17.89
2018-08-14T01:57:39.463Z,17.92
2018-08-14T02:00:08.593Z,17.94
2018-08-14T02:02:37.240Z,17.96
2018-08-14T02:05:06.984Z,17.94
2018-08-14T02:07:35.347Z,17.93
2018-08-14T02:10:03.863Z,17.90
2018-08-14T02:12:32.252Z,17.90
2018-08-14T02:15:00.624Z,17.90
2018-08-14T02:17:29.037Z,17.89
2018-08-14T02:19:57.424Z,17.90
2018-08-14T02:22:25.788Z,17.94
2018-08-14T02:24:54.126Z,17.95
2018-08-14T02:27:22.497Z,17.96
2018-08-14T02:29:50.910Z,17.97
2018-08-14T02:32:19.277Z,17.96
2018-08-14T02:34:47.679Z,17.98
2018-08-14T02:37:16.083Z,17.97
2018-08-14T02:39:44.488Z,17.96
2018-08-14T02:42:12.831Z,17.97
2018-08-14T02:44:41.216Z,17.96
2018-08-14T02:47:09.637Z,17.96
2018-08-14T02:49:38.005Z,17.96
2018-08-14T02:52:06.378Z,17.98
2018-08-14T02:54:34.799Z,17.98
2018-08-14T02:57:03.244Z,17.99
2018-08-14T02:59:31.688Z,18.01
2018-08-14T03:02:00.077Z,18.03
2018-08-14T03:04:28.509Z,18.05
2018-08-14T03:06:57.046Z,18.07
2018-08-14T03:09:25.386Z,18.06
2018-08-14T03:11:53.720Z,18.05
2018-08-14T03:14:22.083Z,18.07
2018-08-14T03:16:50.495Z,18.07
2018-08-14T03:19:18.876Z,18.07
2018-08-14T03:21:47.296Z,18.06
2018-08-14T03:24:15.787Z,18.06
2018-08-14T03:26:44.175Z,18.01
2018-08-14T03:29:12.528Z,17.99
2018-08-14T03:31:40.908Z,18.00
2018-08-14T03:34:09.229Z,18.00
2018-08-14T03:36:37.640Z,18.02
2018-08-14T03:39:09.805Z,18.03
2018-08-14T03:41:38.171Z,18.04
2018-08-14T03:44:06.555Z,18.03
2018-08-14T03:46:34.904Z,18.01
2018-08-14T03:49:03.269Z,18.00
2018-08-14T03:51:31.662Z,18.01
2018-08-14T03:54:00.143Z,18.02
2018-08-14T03:56:28.871Z,18.03
2018-08-14T03:58:57.251Z,18.01
2018-08-14T04:01:25.587Z,18.01
2018-08-14T04:03:53.956Z,18.01
2018-08-14T04:06:22.344Z,18.02
2018-08-14T04:08:50.708Z,18.01
2018-08-14T04:11:19.053Z,18.01
2018-08-14T04:13:47.575Z,18.02
2018-08-14T04:16:16.096Z,18.01
2018-08-14T04:18:44.511Z,17.98
2018-08-14T04:21:12.834Z,18.01
2018-08-14T04:23:41.219Z,18.04
2018-08-14T04:26:09.653Z,18.01
2018-08-14T04:28:38.063Z,18.01
2018-08-14T04:31:06.457Z,18.01
2018-08-14T04:33:34.801Z,18.03
2018-08-14T04:36:03.160Z,18.03
2018-08-14T04:38:31.474Z,18.04
2018-08-14T04:40:59.917Z,18.04
2018-08-14T04:43:28.284Z,18.06
2018-08-14T04:45:56.696Z,18.06
2018-08-14T04:48:24.973Z,18.06
2018-08-14T04:50:53.302Z,18.07
2018-08-14T04:53:21.680Z,18.04
2018-08-14T04:55:50.148Z,18.06
2018-08-14T04:58:18.475Z,18.07
2018-08-14T05:00:46.810Z,18.05
2018-08-14T05:03:15.178Z,18.04
2018-08-14T05:05:43.644Z,18.04
2018-08-14T05:08:11.979Z,18.05
2018-08-14T05:10:40.349Z,18.05
2018-08-14T05:13:08.741Z,18.06
2018-08-14T05:15:37.142Z,18.08
2018-08-14T05:18:05.984Z,18.11
2018-08-14T05:20:34.364Z,18.14
2018-08-14T05:23:02.706Z,18.14
2018-08-14T05:25:31.054Z,18.12
2018-08-14T05:27:59.459Z,18.11
2018-08-14T05:30:27.784Z,18.12
2018-08-14T05:32:56.101Z,18.10
2018-08-14T05:35:24.544Z,18.07
2018-08-14T05:37:52.882Z,18.08
2018-08-14T05:40:21.198Z,18.10
2018-08-14T05:42:49.675Z,18.08
2018-08-14T05:45:18.209Z,18.08
2018-08-14T05:47:46.548Z,18.10
2018-08-14T05:50:16.895Z,18.11
2018-08-14T05:52:45.261Z,18.13
2018-08-14T05:55:13.788Z,18.12
2018-08-14T05:57:42.535Z,18.11
2018-08-14T06:00:14.698Z,18.11
2018-08-14T06:02:43.089Z,18.11
2018-08-14T06:05:11.504Z,18.10
2018-08-14T06:07:39.893Z,18.11
2018-08-14T06:10:09.657Z,18.15
2018-08-14T06:12:38.478Z,18.21
2018-08-14T06:15:12.799Z,18.22
2018-08-14T06:20:20.638Z,18.23
2018-08-14T06:22:49.016Z,18.21
2018-08-14T06:25:17.530Z,18.18
2018-08-14T06:27:45.915Z,18.18
2018-08-14T06:30:16.391Z,18.18
2018-08-14T06:32:45.023Z,18.20
2018-08-14T06:35:13.538Z,18.21
2018-08-14T06:37:41.983Z,18.23
2018-08-14T06:40:12.667Z,18.27
2018-08-14T06:42:42.036Z,18.28
2018-08-14T06:45:13.500Z,18.25
2018-08-14T06:47:41.905Z,18.22
2018-08-14T06:50:12.763Z,18.20
2018-08-14T06:52:41.495Z,18.20
2018-08-14T06:55:10.795Z,18.18
2018-08-14T06:57:40.190Z,18.16
2018-08-14T07:00:14.471Z,18.15
2018-08-14T07:02:42.975Z,18.12
2018-08-14T07:05:11.570Z,18.09
2018-08-14T07:07:40.134Z,18.09
2018-08-14T07:10:10.390Z,18.10
2018-08-14T07:12:39.236Z,18.09
2018-08-14T07:15:12.712Z,18.09
2018-08-14T07:17:41.443Z,18.02
2018-08-14T07:20:10.870Z,18.03
2018-08-14T07:22:39.640Z,18.03
2018-08-14T07:25:07.990Z,18.05
2018-08-14T07:27:36.832Z,18.07
2018-08-14T07:30:08.864Z,18.06
2018-08-14T07:32:37.253Z,18.04
2018-08-14T07:35:06.434Z,18.03
2018-08-14T07:37:34.859Z,18.00
2018-08-14T07:40:03.429Z,17.99
2018-08-14T07:42:31.809Z,18.02
2018-08-14T07:45:00.509Z,18.05
2018-08-14T07:47:28.873Z,18.05
2018-08-14T07:49:57.287Z,18.07
2018-08-14T07:52:25.771Z,18.14
2018-08-14T07:54:54.183Z,18.22
2018-08-14T07:57:22.545Z,18.26
2018-08-14T07:59:51.029Z,18.21
2018-08-14T08:02:19.411Z,18.24
2018-08-14T08:04:47.781Z,18.22
2018-08-14T08:07:16.124Z,18.24
2018-08-14T08:09:44.495Z,18.35
2018-08-14T08:12:12.998Z,18.49
2018-08-14T08:14:41.436Z,18.54
2018-08-14T08:17:09.783Z,18.72
2018-08-14T08:19:38.373Z,19.04
2018-08-14T08:22:06.869Z,19.28
2018-08-14T08:24:35.253Z,19.35
2018-08-14T08:27:03.624Z,19.35
2018-08-14T08:29:31.992Z,19.26
2018-08-14T08:32:00.321Z,19.28
2018-08-14T08:34:28.724Z,19.34
2018-08-14T08:36:57.067Z,19.32
2018-08-14T08:39:25.438Z,19.32
2018-08-14T08:41:53.784Z,19.33
2018-08-14T08:44:22.121Z,19.41
2018-08-14T08:46:50.816Z,19.56
2018-08-14T08:49:19.207Z,19.67
2018-08-14T08:51:47.606Z,19.79
2018-08-14T08:54:15.937Z,19.99
2018-08-14T08:56:44.339Z,20.09
2018-08-14T08:59:13.101Z,20.14
2018-08-14T09:01:41.413Z,20.02
2018-08-14T09:04:10.129Z,20.05
2018-08-14T09:06:38.612Z,20.16
2018-08-14T09:09:10.047Z,20.16
2018-08-14T09:11:38.393Z,19.95
2018-08-14T09:14:07.011Z,19.76
2018-08-14T09:16:35.382Z,19.85
2018-08-14T09:19:04.292Z,20.00
2018-08-14T09:21:32.662Z,20.11
2018-08-14T09:24:01.339Z,20.21
2018-08-14T09:26:29.996Z,20.35
2018-08-14T09:28:58.354Z,20.56
2018-08-14T09:31:26.797Z,20.65
2018-08-14T09:33:55.151Z,20.61
2018-08-14T09:36:23.486Z,20.57
2018-08-14T09:38:51.853Z,20.59
2018-08-14T09:41:20.194Z,20.57
2018-08-14T09:43:48.736Z,20.67
2018-08-14T09:46:17.088Z,20.76
2018-08-14T09:48:45.542Z,20.92
2018-08-14T09:51:13.933Z,21.04
2018-08-14T09:53:42.292Z,21.13
2018-08-14T09:56:10.728Z,21.17
2018-08-14T09:58:39.105Z,21.05
2018-08-14T10:01:13.562Z,21.05
2018-08-14T10:03:47.329Z,20.98
2018-08-14T10:06:20.760Z,20.99
2018-08-14T10:08:51.693Z,21.08
2018-08-14T10:11:20.460Z,21.20
2018-08-14T10:13:48.820Z,21.26
2018-08-14T10:16:17.203Z,21.21
2018-08-14T10:18:45.601Z,21.17
2018-08-14T10:21:14.450Z,21.22
2018-08-14T10:23:42.803Z,21.23
2018-08-14T10:26:11.206Z,21.22
2018-08-14T10:28:46.198Z,21.17
2018-08-14T10:31:14.527Z,21.13
2018-08-14T10:33:42.951Z,21.07
2018-08-14T10:36:11.298Z,21.06
2018-08-14T10:38:39.697Z,21.13
2018-08-14T10:41:08.108Z,21.31
2018-08-14T10:43:36.535Z,21.54
2018-08-14T10:46:04.997Z,21.77
2018-08-14T10:48:33.314Z,21.93
2018-08-14T10:51:01.649Z,21.92
2018-08-14T10:53:30.068Z,21.95
2018-08-14T10:55:58.415Z,21.99
2018-08-14T10:58:26.806Z,22.07
2018-08-14T11:00:55.210Z,22.11
2018-08-14T11:03:23.551Z,22.07
2018-08-14T11:05:51.897Z,22.02
2018-08-14T11:08:20.316Z,22.04
2018-08-14T11:10:54.051Z,22.18
2018-08-14T11:13:22.459Z,22.32
2018-08-14T11:15:57.483Z,22.35
2018-08-14T11:18:25.800Z,22.24
2018-08-14T11:20:54.167Z,22.08
2018-08-14T11:23:22.528Z,22.07
2018-08-14T11:25:50.881Z,22.04
2018-08-14T11:28:19.215Z,22.06
2018-08-14T11:30:47.666Z,22.20
2018-08-14T11:33:16.865Z,22.37
2018-08-14T11:36:05.629Z,22.54
2018-08-14T11:38:34.601Z,22.63
2018-08-14T11:41:03.409Z,22.68
2018-08-14T11:43:31.774Z,22.65
2018-08-14T11:46:00.172Z,22.70
2018-08-14T11:48:28.696Z,22.98
2018-08-14T11:50:57.110Z,23.05
2018-08-14T11:53:25.406Z,23.07
2018-08-14T11:55:53.912Z,23.02
2018-08-14T11:58:22.520Z,22.96
2018-08-14T12:00:50.895Z,23.00
2018-08-14T12:03:19.289Z,23.03
2018-08-14T12:05:47.676Z,23.07
2018-08-14T12:08:16.088Z,23.15
2018-08-14T12:10:44.400Z,23.22
2018-08-14T12:13:12.803Z,23.24
2018-08-14T12:15:41.160Z,23.15
2018-08-14T12:18:58.134Z,23.07
2018-08-14T12:21:26.507Z,23.16
2018-08-14T12:23:54.879Z,23.22
2018-08-14T12:26:23.235Z,23.26
2018-08-14T12:28:51.597Z,23.34
2018-08-14T12:31:19.965Z,23.36
2018-08-14T12:33:48.331Z,23.31
2018-08-14T12:36:16.682Z,23.29
2018-08-14T12:38:45.045Z,23.24
2018-08-14T12:41:13.637Z,23.23
2018-08-14T12:43:42.027Z,23.27
2018-08-14T12:46:10.664Z,23.37
2018-08-14T12:48:39.085Z,23.43
2018-08-14T12:51:07.424Z,23.52
2018-08-14T12:53:35.773Z,23.63
2018-08-14T12:56:04.199Z,23.66
2018-08-14T12:58:32.584Z,23.56
2018-08-14T13:01:00.957Z,23.41
2018-08-14T13:03:29.306Z,23.34
2018-08-14T13:05:57.656Z,23.34
2018-08-14T13:08:26.006Z,23.26
2018-08-14T13:10:54.396Z,23.22
2018-08-14T13:13:22.783Z,23.24
2018-08-14T13:15:51.130Z,23.33
2018-08-14T13:18:19.479Z,23.44
2018-08-14T13:20:47.796Z,23.53
2018-08-14T13:23:16.606Z,23.43
2018-08-14T13:25:44.950Z,23.54
2018-08-14T13:28:13.327Z,23.65
2018-08-14T13:30:42.127Z,23.66
2018-08-14T13:33:10.476Z,23.65
2018-08-14T13:35:38.802Z,23.61
2018-08-14T13:38:07.132Z,23.56
2018-08-14T13:40:35.480Z,23.58
2018-08-14T13:43:03.885Z,23.63
2018-08-14T13:45:32.326Z,23.65
2018-08-14T13:48:00.799Z,23.61
2018-08-14T13:50:29.159Z,23.56
2018-08-14T13:52:57.542Z,23.55
2018-08-14T13:55:25.905Z,23.67
2018-08-14T13:57:54.293Z,23.82
2018-08-14T14:00:25.345Z,23.86
2018-08-14T14:02:53.687Z,23.86
2018-08-14T14:05:22.616Z,23.79
2018-08-14T14:07:51.023Z,23.66
2018-08-14T14:10:20.172Z,23.69
2018-08-14T14:12:48.573Z,23.82
2018-08-14T14:15:21.033Z,23.84
2018-08-14T14:17:50.431Z,23.87
2018-08-14T14:20:22.046Z,23.87
2018-08-14T14:22:50.485Z,23.83
2018-08-14T14:25:18.836Z,23.75
2018-08-14T14:27:47.182Z,23.81
2018-08-14T14:30:16.517Z,23.87
2018-08-14T14:32:45.239Z,23.90
2018-08-14T14:35:14.119Z,23.98
2018-08-14T14:37:43.000Z,23.97
2018-08-14T14:40:16.391Z,23.98
2018-08-14T14:42:44.793Z,24.02
2018-08-14T14:45:14.181Z,23.97
2018-08-14T14:47:43.620Z,23.79
2018-08-14T14:50:12.207Z,23.62
2018-08-14T14:52:41.611Z,23.50
2018-08-14T14:55:13.304Z,23.51
2018-08-14T14:57:42.302Z,23.58
2018-08-14T15:00:16.127Z,23.68
2018-08-14T15:02:44.904Z,23.73
2018-08-14T15:05:13.362Z,23.69
2018-08-14T15:07:41.774Z,23.60
2018-08-14T15:10:10.533Z,23.56
2018-08-14T15:12:39.041Z,23.64
2018-08-14T15:15:07.913Z,23.72
2018-08-14T15:17:37.046Z,23.78
2018-08-14T15:20:08.465Z,23.69
2018-08-14T15:22:37.049Z,23.54
2018-08-14T15:25:07.557Z,23.40
2018-08-14T15:27:35.892Z,23.29
2018-08-14T15:30:17.176Z,23.28
2018-08-14T15:32:45.511Z,23.26
2018-08-14T15:35:13.862Z,23.18
2018-08-14T15:37:42.179Z,23.19
2018-08-14T15:40:10.525Z,23.29
2018-08-14T15:42:39.183Z,23.43
2018-08-14T15:45:07.587Z,23.52
2018-08-14T15:47:35.913Z,23.57
2018-08-14T15:50:04.856Z,23.66
2018-08-14T15:52:33.204Z,23.69
2018-08-14T15:55:01.666Z,23.72
2018-08-14T15:57:30.000Z,23.74
2018-08-14T15:59:58.445Z,23.75
2018-08-14T16:02:26.752Z,23.72
2018-08-14T16:04:55.139Z,23.69
2018-08-14T16:07:23.489Z,23.71
2018-08-14T16:09:51.800Z,23.71
2018-08-14T16:12:20.129Z,23.71
2018-08-14T16:14:48.505Z,23.67
2018-08-14T16:17:16.827Z,23.62
2018-08-14T16:19:45.152Z,23.60
2018-08-14T16:22:13.522Z,23.57
2018-08-14T16:24:41.828Z,23.52
2018-08-14T16:27:13.145Z,23.50
2018-08-14T16:29:41.632Z,23.45
2018-08-14T16:32:09.976Z,23.38
2018-08-14T16:34:38.314Z,23.36
2018-08-14T16:37:06.920Z,23.35
2018-08-14T16:39:35.298Z,23.40
2018-08-14T16:42:03.681Z,23.47
2018-08-14T16:44:32.037Z,23.52
2018-08-14T16:47:00.440Z,23.56
2018-08-14T16:49:28.830Z,23.56
2018-08-14T16:51:57.222Z,23.58
2018-08-14T16:54:25.588Z,23.56
2018-08-14T16:56:53.919Z,23.48
2018-08-14T16:59:22.290Z,23.44
2018-08-14T17:01:50.613Z,23.41
2018-08-14T17:04:19.004Z,23.39
2018-08-14T17:06:47.383Z,23.36
2018-08-14T17:09:15.732Z,23.31
2018-08-14T17:11:44.309Z,23.24
2018-08-14T17:14:12.751Z,23.16
2018-08-14T17:16:41.162Z,23.05
2018-08-14T17:19:09.770Z,23.02
2018-08-14T17:21:36.992Z,22.97
2018-08-14T17:24:05.330Z,22.90
2018-08-14T17:26:33.699Z,22.86
2018-08-14T17:29:02.244Z,22.80
2018-08-14T17:31:30.584Z,22.76
2018-08-14T17:33:58.965Z,22.73
2018-08-14T17:36:27.359Z,22.71
2018-08-14T17:38:55.705Z,22.69
2018-08-14T17:41:24.080Z,22.69
2018-08-14T17:43:52.433Z,22.68
2018-08-14T17:46:20.775Z,22.65
2018-08-14T17:48:49.139Z,22.62
2018-08-14T17:51:17.507Z,22.60
2018-08-14T17:53:45.854Z,22.56
2018-08-14T17:56:14.216Z,22.56
2018-08-14T17:58:42.570Z,22.55
2018-08-14T18:01:10.935Z,22.52
2018-08-14T18:03:39.290Z,22.48
2018-08-14T18:06:07.731Z,22.46
2018-08-14T18:08:36.193Z,22.44
2018-08-14T18:11:04.655Z,22.42
2018-08-14T18:13:33.041Z,22.38
2018-08-14T18:16:01.400Z,22.35
2018-08-14T18:18:29.767Z,22.33
2018-08-14T18:20:58.157Z,22.31
2018-08-14T18:23:26.493Z,22.30
2018-08-14T18:25:54.849Z,22.29
2018-08-14T18:28:23.224Z,22.28
2018-08-14T18:30:51.924Z,22.28
2018-08-14T18:33:20.435Z,22.25
2018-08-14T18:35:48.757Z,22.23
2018-08-14T18:38:17.152Z,22.20
2018-08-14T18:40:45.522Z,22.16
2018-08-14T18:43:13.967Z,22.14
2018-08-14T18:45:42.344Z,22.11
2018-08-14T18:48:10.699Z,22.06
2018-08-14T18:50:39.128Z,22.02
2018-08-14T18:53:07.546Z,21.98
2018-08-14T18:55:36.145Z,21.92
2018-08-14T18:58:04.531Z,21.86
2018-08-14T19:00:32.913Z,21.82
2018-08-14T19:03:01.563Z,21.78
2018-08-14T19:05:29.916Z,21.76
2018-08-14T19:07:58.456Z,21.74
2018-08-14T19:10:27.335Z,21.73
2018-08-14T19:12:56.150Z,21.68
2018-08-14T19:15:29.469Z,21.67
2018-08-14T19:17:57.963Z,21.65
2018-08-14T19:20:26.394Z,21.64
2018-08-14T19:22:54.716Z,21.63
2018-08-14T19:25:23.114Z,21.62
2018-08-14T19:27:51.513Z,21.60
2018-08-14T19:30:20.369Z,21.58
2018-08-14T19:32:48.735Z,21.57
2018-08-14T19:35:17.657Z,21.55
2018-08-14T19:37:46.170Z,21.54
2018-08-14T19:40:19.315Z,21.52
2018-08-14T19:42:47.926Z,21.51
2018-08-14T19:45:16.501Z,21.51
2018-08-14T19:47:44.871Z,21.48
2018-08-14T19:50:16.405Z,21.47
2018-08-14T19:52:44.792Z,21.45
2018-08-14T19:55:17.598Z,21.42
2018-08-14T19:57:47.543Z,21.42
2018-08-14T20:00:21.056Z,21.39
2018-08-14T20:02:50.215Z,21.38
2018-08-14T20:05:18.550Z,21.35
2018-08-14T20:07:46.933Z,21.33
2018-08-14T20:10:15.276Z,21.27
2018-08-14T20:12:43.674Z,21.28
2018-08-14T20:15:14.743Z,21.26
2018-08-14T20:17:43.336Z,21.26
2018-08-14T20:20:13.853Z,21.26
2018-08-14T20:22:42.594Z,21.26
2018-08-14T20:25:11.116Z,21.23
2018-08-14T20:27:39.586Z,21.21
2018-08-14T20:30:12.628Z,21.18
2018-08-14T20:32:41.091Z,21.15
2018-08-14T20:35:11.217Z,21.14
2018-08-14T20:37:39.580Z,21.13
2018-08-14T20:40:17.421Z,21.13
2018-08-14T20:42:45.778Z,21.12
2018-08-14T20:45:14.684Z,21.10
2018-08-14T20:47:43.329Z,21.08
2018-08-14T20:50:15.101Z,21.05
2018-08-14T20:52:43.995Z,21.03
2018-08-14T20:55:13.001Z,21.01
2018-08-14T20:57:42.211Z,20.97
2018-08-14T21:01:39.339Z,20.94
2018-08-14T21:04:07.940Z,20.92
2018-08-14T21:06:36.317Z,20.90
2018-08-14T21:09:07.471Z,20.87
2018-08-14T21:11:35.921Z,20.83
2018-08-14T21:14:04.492Z,20.81
2018-08-14T21:16:32.883Z,20.80
2018-08-14T21:19:01.229Z,20.78
2018-08-14T21:21:29.614Z,20.75
2018-08-14T21:23:58.005Z,20.71
2018-08-14T21:26:26.380Z,20.70
2018-08-14T21:28:54.780Z,20.67
2018-08-14T21:31:23.167Z,20.57
2018-08-14T21:33:51.482Z,20.52
2018-08-14T21:36:19.934Z,20.48
2018-08-14T21:38:48.287Z,20.44
2018-08-14T21:41:16.646Z,20.43
2018-08-14T21:43:45.032Z,20.42
2018-08-14T21:46:13.385Z,20.42
2018-08-14T21:48:41.761Z,20.44
2018-08-14T21:51:10.085Z,20.43
2018-08-14T21:53:38.481Z,20.44
2018-08-14T21:56:06.823Z,20.42
2018-08-14T21:58:35.264Z,20.42
2018-08-14T22:01:07.416Z,20.43
2018-08-14T22:03:48.255Z,20.44
2018-08-14T22:06:16.959Z,20.44
2018-08-14T22:08:45.383Z,20.45
2018-08-14T22:11:13.935Z,20.45
2018-08-14T22:13:42.368Z,20.44
2018-08-14T22:16:10.769Z,20.42
2018-08-14T22:18:39.282Z,20.40
2018-08-14T22:21:07.671Z,20.39
2018-08-14T22:23:36.085Z,20.37
2018-08-14T22:26:04.657Z,20.35
2018-08-14T22:28:33.043Z,20.34
2018-08-14T22:31:01.639Z,20.34
2018-08-14T22:33:30.059Z,20.33
2018-08-14T22:35:58.500Z,20.29
2018-08-14T22:38:26.920Z,20.31
2018-08-14T22:40:55.277Z,20.32
2018-08-14T22:43:23.723Z,20.32
2018-08-14T22:45:52.081Z,20.34
2018-08-14T22:48:20.494Z,20.34
2018-08-14T22:50:48.911Z,20.35
2018-08-14T22:53:17.402Z,20.35
2018-08-14T22:55:45.792Z,20.35
2018-08-14T22:58:14.243Z,20.34
2018-08-14T23:00:48.902Z,20.31
2018-08-14T23:03:17.481Z,20.32
2018-08-14T23:05:45.789Z,20.33
2018-08-14T23:08:14.144Z,20.32
2018-08-14T23:10:42.548Z,20.32
2018-08-14T23:13:10.913Z,20.28
2018-08-14T23:15:39.291Z,20.24
2018-08-14T23:18:07.716Z,20.25
2018-08-14T23:20:36.118Z,20.21
2018-08-14T23:23:04.852Z,20.20
2018-08-14T23:25:33.278Z,20.16
2018-08-14T23:28:01.612Z,20.13
2018-08-14T23:30:29.980Z,20.11
2018-08-14T23:32:58.333Z,20.10
2018-08-14T23:35:26.725Z,20.08
2018-08-14T23:37:55.076Z,20.06
2018-08-14T23:40:23.460Z,20.03
2018-08-14T23:42:51.832Z,19.99
2018-08-14T23:45:20.188Z,19.97
2018-08-14T23:47:48.608Z,19.97
2018-08-14T23:50:17.012Z,19.97
2018-08-14T23:52:45.397Z,19.95
2018-08-14T23:55:14.184Z,19.94
2018-08-14T23:57:42.604Z,19.91
